sensor_id;sensor_type;location;lat;lon;timestamp;P1;durP1;ratioP1;P2;durP2;ratioP2
7573;SDS011;3828;48.922;9.116;2022-10-30T00:00:54;11.80;;;8.60;;
7573;SDS011;3828;48.922;9.116;2022-10-30T00:03:21;11.97;;;8.13;;
7573;SDS011;3828;48.922;9.116;2022-10-30T00:05:48;13.13;;;8.47;;
7573;SDS011;3828;48.922;9.116;2022-10-30T00:08:17;10.63;;;7.80;;
7573;SDS011;3828;48.922;9.116;2022-10-30T00:10:45;13.10;;;7.93;;
7573;SDS011;3828;48.922;9.116;2022-10-30T00:13:15;10.77;;;7.97;;
7573;SDS011;3828;48.922;9.116;2022-10-30T00:15:45;9.53;;;7.27;;
7573;SDS011;3828;48.922;9.116;2022-10-30T00:18:13;14.03;;;8.23;;
7573;SDS011;3828;48.922;9.116;2022-10-30T00:20:40;12.50;;;8.43;;
7573;SDS011;3828;48.922;9.116;2022-10-30T00:23:07;21.47;;;9.43;;
7573;SDS011;3828;48.922;9.116;2022-10-30T00:25:34;13.73;;;8.23;;
7573;SDS011;3828;48.922;9.116;2022-10-30T00:28:01;9.00;;;7.60;;
7573;SDS011;3828;48.922;9.116;2022-10-30T00:30:29;17.27;;;9.13;;
7573;SDS011;3828;48.922;9.116;2022-10-30T00:32:56;11.03;;;8.30;;
7573;SDS011;3828;48.922;9.116;2022-10-30T00:35:23;13.60;;;8.77;;
7573;SDS011;3828;48.922;9.116;2022-10-30T00:37:50;14.97;;;9.47;;
7573;SDS011;3828;48.922;9.116;2022-10-30T00:40:17;10.23;;;9.13;;
7573;SDS011;3828;48.922;9.116;2022-10-30T00:42:44;9.53;;;7.70;;
7573;SDS011;3828;48.922;9.116;2022-10-30T00:45:11;10.83;;;8.70;;
7573;SDS011;3828;48.922;9.116;2022-10-30T00:47:41;13.90;;;10.43;;
7573;SDS011;3828;48.922;9.116;2022-10-30T00:50:11;14.63;;;10.77;;
7573;SDS011;3828;48.922;9.116;2022-10-30T00:52:41;11.60;;;9.87;;
7573;SDS011;3828;48.922;9.116;2022-10-30T00:55:14;12.27;;;8.67;;
7573;SDS011;3828;48.922;9.116;2022-10-30T00:57:44;13.37;;;10.23;;
7573;SDS011;3828;48.922;9.116;2022-10-30T01:00:12;11.93;;;9.97;;
7573;SDS011;3828;48.922;9.116;2022-10-30T01:02:42;13.00;;;9.63;;
7573;SDS011;3828;48.922;9.116;2022-10-30T01:05:09;13.70;;;9.17;;
7573;SDS011;3828;48.922;9.116;2022-10-30T01:07:39;13.37;;;8.60;;
7573;SDS011;3828;48.922;9.116;2022-10-30T01:10:06;12.97;;;9.57;;
7573;SDS011;3828;48.922;9.116;2022-10-30T01:12:34;10.10;;;8.47;;
7573;SDS011;3828;48.922;9.116;2022-10-30T01:15:02;9.93;;;8.03;;
7573;SDS011;3828;48.922;9.116;2022-10-30T01:20:30;11.07;;;7.50;;
7573;SDS011;3828;48.922;9.116;2022-10-30T01:23:15;16.43;;;8.60;;
7573;SDS011;3828;48.922;9.116;2022-10-30T01:25:52;11.23;;;7.90;;
7573;SDS011;3828;48.922;9.116;2022-10-30T01:28:34;9.17;;;7.63;;
7573;SDS011;3828;48.922;9.116;2022-10-30T01:31:12;9.63;;;6.90;;
7573;SDS011;3828;48.922;9.116;2022-10-30T01:33:53;13.53;;;7.40;;
7573;SDS011;3828;48.922;9.116;2022-10-30T01:36:28;14.07;;;7.90;;
7573;SDS011;3828;48.922;9.116;2022-10-30T01:39:02;9.57;;;7.17;;
7573;SDS011;3828;48.922;9.116;2022-10-30T01:41:32;13.17;;;7.53;;
7573;SDS011;3828;48.922;9.116;2022-10-30T01:44:00;13.50;;;6.93;;
7573;SDS011;3828;48.922;9.116;2022-10-30T01:46:36;10.10;;;6.30;;
7573;SDS011;3828;48.922;9.116;2022-10-30T01:49:18;11.20;;;7.43;;
7573;SDS011;3828;48.922;9.116;2022-10-30T01:51:57;10.07;;;7.27;;
7573;SDS011;3828;48.922;9.116;2022-10-30T01:54:32;9.50;;;6.80;;
7573;SDS011;3828;48.922;9.116;2022-10-30T01:57:08;10.87;;;7.13;;
7573;SDS011;3828;48.922;9.116;2022-10-30T01:59:43;8.40;;;6.17;;
7573;SDS011;3828;48.922;9.116;2022-10-30T02:02:15;8.37;;;6.03;;
7573;SDS011;3828;48.922;9.116;2022-10-30T02:04:43;11.10;;;6.67;;
7573;SDS011;3828;48.922;9.116;2022-10-30T02:07:10;11.17;;;6.80;;
7573;SDS011;3828;48.922;9.116;2022-10-30T02:09:37;8.90;;;6.70;;
7573;SDS011;3828;48.922;9.116;2022-10-30T02:12:05;7.03;;;6.10;;
7573;SDS011;3828;48.922;9.116;2022-10-30T02:14:33;8.97;;;6.97;;
7573;SDS011;3828;48.922;9.116;2022-10-30T02:17:03;8.23;;;7.10;;
7573;SDS011;3828;48.922;9.116;2022-10-30T02:19:31;10.60;;;8.07;;
7573;SDS011;3828;48.922;9.116;2022-10-30T02:22:00;7.77;;;6.80;;
7573;SDS011;3828;48.922;9.116;2022-10-30T02:24:27;9.07;;;6.73;;
7573;SDS011;3828;48.922;9.116;2022-10-30T02:26:54;11.20;;;7.10;;
7573;SDS011;3828;48.922;9.116;2022-10-30T02:29:20;9.00;;;7.17;;
7573;SDS011;3828;48.922;9.116;2022-10-30T02:31:47;14.63;;;7.80;;
7573;SDS011;3828;48.922;9.116;2022-10-30T02:34:14;8.53;;;6.67;;
7573;SDS011;3828;48.922;9.116;2022-10-30T02:36:42;8.23;;;6.50;;
7573;SDS011;3828;48.922;9.116;2022-10-30T02:39:10;11.63;;;7.23;;
7573;SDS011;3828;48.922;9.116;2022-10-30T02:41:37;10.30;;;6.77;;
7573;SDS011;3828;48.922;9.116;2022-10-30T02:44:04;7.80;;;6.20;;
7573;SDS011;3828;48.922;9.116;2022-10-30T02:46:31;12.37;;;7.27;;
7573;SDS011;3828;48.922;9.116;2022-10-30T02:48:58;9.10;;;7.97;;
7573;SDS011;3828;48.922;9.116;2022-10-30T02:51:25;12.77;;;7.77;;
7573;SDS011;3828;48.922;9.116;2022-10-30T02:53:52;13.60;;;7.80;;
7573;SDS011;3828;48.922;9.116;2022-10-30T02:56:20;13.20;;;7.43;;
7573;SDS011;3828;48.922;9.116;2022-10-30T02:58:46;8.97;;;7.07;;
7573;SDS011;3828;48.922;9.116;2022-10-30T03:01:14;8.20;;;6.60;;
7573;SDS011;3828;48.922;9.116;2022-10-30T03:03:42;9.53;;;7.90;;
7573;SDS011;3828;48.922;9.116;2022-10-30T03:06:10;10.57;;;7.07;;
7573;SDS011;3828;48.922;9.116;2022-10-30T03:08:39;7.47;;;6.73;;
7573;SDS011;3828;48.922;9.116;2022-10-30T03:11:07;9.07;;;7.07;;
7573;SDS011;3828;48.922;9.116;2022-10-30T03:13:36;6.83;;;5.70;;
7573;SDS011;3828;48.922;9.116;2022-10-30T03:16:05;8.60;;;6.20;;
7573;SDS011;3828;48.922;9.116;2022-10-30T03:18:34;11.43;;;7.13;;
7573;SDS011;3828;48.922;9.116;2022-10-30T03:21:02;8.57;;;6.97;;
7573;SDS011;3828;48.922;9.116;2022-10-30T03:23:30;10.57;;;7.03;;
7573;SDS011;3828;48.922;9.116;2022-10-30T03:25:57;12.00;;;7.47;;
7573;SDS011;3828;48.922;9.116;2022-10-30T03:28:25;8.63;;;7.73;;
7573;SDS011;3828;48.922;9.116;2022-10-30T03:30:58;11.20;;;7.43;;
7573;SDS011;3828;48.922;9.116;2022-10-30T03:33:26;9.60;;;8.57;;
7573;SDS011;3828;48.922;9.116;2022-10-30T03:35:53;14.37;;;7.83;;
7573;SDS011;3828;48.922;9.116;2022-10-30T03:38:20;12.93;;;7.17;;
7573;SDS011;3828;48.922;9.116;2022-10-30T03:40:47;7.43;;;6.43;;
7573;SDS011;3828;48.922;9.116;2022-10-30T03:43:14;8.43;;;7.60;;
7573;SDS011;3828;48.922;9.116;2022-10-30T03:45:44;7.47;;;6.27;;
7573;SDS011;3828;48.922;9.116;2022-10-30T03:48:14;13.33;;;7.03;;
7573;SDS011;3828;48.922;9.116;2022-10-30T03:50:42;9.70;;;6.60;;
7573;SDS011;3828;48.922;9.116;2022-10-30T03:53:09;10.07;;;6.50;;
7573;SDS011;3828;48.922;9.116;2022-10-30T03:55:36;8.97;;;6.77;;
7573;SDS011;3828;48.922;9.116;2022-10-30T03:58:04;10.83;;;7.50;;
7573;SDS011;3828;48.922;9.116;2022-10-30T04:00:31;9.17;;;7.20;;
7573;SDS011;3828;48.922;9.116;2022-10-30T04:02:59;7.30;;;6.63;;
7573;SDS011;3828;48.922;9.116;2022-10-30T04:05:27;9.93;;;8.07;;
7573;SDS011;3828;48.922;9.116;2022-10-30T04:07:56;10.37;;;7.13;;
7573;SDS011;3828;48.922;9.116;2022-10-30T04:10:24;12.97;;;6.83;;
7573;SDS011;3828;48.922;9.116;2022-10-30T04:12:51;7.77;;;6.27;;
7573;SDS011;3828;48.922;9.116;2022-10-30T04:15:18;8.63;;;7.07;;
7573;SDS011;3828;48.922;9.116;2022-10-30T04:17:48;9.80;;;7.20;;
7573;SDS011;3828;48.922;9.116;2022-10-30T04:20:16;10.67;;;6.40;;
7573;SDS011;3828;48.922;9.116;2022-10-30T04:22:44;10.57;;;6.87;;
7573;SDS011;3828;48.922;9.116;2022-10-30T04:25:11;7.67;;;6.87;;
7573;SDS011;3828;48.922;9.116;2022-10-30T04:27:39;10.47;;;6.90;;
7573;SDS011;3828;48.922;9.116;2022-10-30T04:30:06;9.67;;;6.70;;
7573;SDS011;3828;48.922;9.116;2022-10-30T04:32:35;12.77;;;6.70;;
7573;SDS011;3828;48.922;9.116;2022-10-30T04:35:02;7.80;;;6.47;;
7573;SDS011;3828;48.922;9.116;2022-10-30T04:37:29;8.77;;;7.20;;
7573;SDS011;3828;48.922;9.116;2022-10-30T04:39:57;9.97;;;6.90;;
7573;SDS011;3828;48.922;9.116;2022-10-30T04:42:24;9.73;;;7.00;;
7573;SDS011;3828;48.922;9.116;2022-10-30T04:44:51;8.43;;;7.17;;
7573;SDS011;3828;48.922;9.116;2022-10-30T04:47:18;9.80;;;7.13;;
7573;SDS011;3828;48.922;9.116;2022-10-30T04:49:45;7.00;;;6.30;;
7573;SDS011;3828;48.922;9.116;2022-10-30T04:52:11;10.53;;;6.93;;
7573;SDS011;3828;48.922;9.116;2022-10-30T04:54:38;12.77;;;6.60;;
7573;SDS011;3828;48.922;9.116;2022-10-30T04:57:07;9.47;;;7.03;;
7573;SDS011;3828;48.922;9.116;2022-10-30T04:59:34;7.53;;;6.50;;
7573;SDS011;3828;48.922;9.116;2022-10-30T05:02:01;8.23;;;6.73;;
7573;SDS011;3828;48.922;9.116;2022-10-30T05:04:28;8.27;;;7.07;;
7573;SDS011;3828;48.922;9.116;2022-10-30T05:06:55;8.23;;;6.50;;
7573;SDS011;3828;48.922;9.116;2022-10-30T05:09:21;10.30;;;5.77;;
7573;SDS011;3828;48.922;9.116;2022-10-30T05:11:48;6.67;;;5.97;;
7573;SDS011;3828;48.922;9.116;2022-10-30T05:14:17;8.33;;;7.00;;
7573;SDS011;3828;48.922;9.116;2022-10-30T05:16:43;8.23;;;5.90;;
7573;SDS011;3828;48.922;9.116;2022-10-30T05:19:10;10.40;;;6.47;;
7573;SDS011;3828;48.922;9.116;2022-10-30T05:21:37;8.17;;;6.13;;
7573;SDS011;3828;48.922;9.116;2022-10-30T05:24:04;6.37;;;5.70;;
7573;SDS011;3828;48.922;9.116;2022-10-30T05:26:31;6.53;;;5.87;;
7573;SDS011;3828;48.922;9.116;2022-10-30T05:28:58;5.93;;;5.20;;
7573;SDS011;3828;48.922;9.116;2022-10-30T05:31:26;9.90;;;6.10;;
7573;SDS011;3828;48.922;9.116;2022-10-30T05:33:53;9.27;;;5.60;;
7573;SDS011;3828;48.922;9.116;2022-10-30T05:36:20;6.63;;;5.87;;
7573;SDS011;3828;48.922;9.116;2022-10-30T05:38:47;6.47;;;5.63;;
7573;SDS011;3828;48.922;9.116;2022-10-30T05:41:14;8.20;;;5.20;;
7573;SDS011;3828;48.922;9.116;2022-10-30T05:43:40;7.67;;;5.77;;
7573;SDS011;3828;48.922;9.116;2022-10-30T05:46:07;12.53;;;7.07;;
7573;SDS011;3828;48.922;9.116;2022-10-30T05:48:35;14.17;;;5.97;;
7573;SDS011;3828;48.922;9.116;2022-10-30T05:51:02;10.67;;;5.73;;
7573;SDS011;3828;48.922;9.116;2022-10-30T05:53:30;8.23;;;5.63;;
7573;SDS011;3828;48.922;9.116;2022-10-30T05:55:57;9.40;;;6.60;;
7573;SDS011;3828;48.922;9.116;2022-10-30T05:58:24;8.00;;;5.37;;
7573;SDS011;3828;48.922;9.116;2022-10-30T06:00:51;9.23;;;5.80;;
7573;SDS011;3828;48.922;9.116;2022-10-30T06:03:18;8.47;;;5.77;;
7573;SDS011;3828;48.922;9.116;2022-10-30T06:05:46;12.40;;;5.63;;
7573;SDS011;3828;48.922;9.116;2022-10-30T06:08:13;8.27;;;5.13;;
7573;SDS011;3828;48.922;9.116;2022-10-30T06:10:41;7.37;;;6.40;;
7573;SDS011;3828;48.922;9.116;2022-10-30T06:13:08;9.13;;;6.20;;
7573;SDS011;3828;48.922;9.116;2022-10-30T06:15:36;6.37;;;5.20;;
7573;SDS011;3828;48.922;9.116;2022-10-30T06:18:03;8.43;;;5.13;;
7573;SDS011;3828;48.922;9.116;2022-10-30T06:20:30;7.10;;;5.97;;
7573;SDS011;3828;48.922;9.116;2022-10-30T06:22:59;9.33;;;6.33;;
7573;SDS011;3828;48.922;9.116;2022-10-30T06:25:27;6.00;;;5.33;;
7573;SDS011;3828;48.922;9.116;2022-10-30T06:27:55;11.57;;;5.90;;
7573;SDS011;3828;48.922;9.116;2022-10-30T06:30:22;8.57;;;5.33;;
7573;SDS011;3828;48.922;9.116;2022-10-30T06:32:49;8.80;;;5.47;;
7573;SDS011;3828;48.922;9.116;2022-10-30T06:35:21;10.67;;;5.77;;
7573;SDS011;3828;48.922;9.116;2022-10-30T06:37:48;7.77;;;5.60;;
7573;SDS011;3828;48.922;9.116;2022-10-30T06:40:19;8.23;;;6.43;;
7573;SDS011;3828;48.922;9.116;2022-10-30T06:42:46;9.77;;;6.53;;
7573;SDS011;3828;48.922;9.116;2022-10-30T06:45:14;13.60;;;6.70;;
7573;SDS011;3828;48.922;9.116;2022-10-30T06:47:43;8.43;;;6.40;;
7573;SDS011;3828;48.922;9.116;2022-10-30T06:50:11;8.27;;;5.87;;
7573;SDS011;3828;48.922;9.116;2022-10-30T06:52:39;8.70;;;5.90;;
7573;SDS011;3828;48.922;9.116;2022-10-30T06:55:07;9.33;;;5.63;;
7573;SDS011;3828;48.922;9.116;2022-10-30T06:57:36;9.13;;;5.83;;
7573;SDS011;3828;48.922;9.116;2022-10-30T07:00:06;8.67;;;6.57;;
7573;SDS011;3828;48.922;9.116;2022-10-30T07:02:34;8.43;;;5.87;;
7573;SDS011;3828;48.922;9.116;2022-10-30T07:05:00;15.53;;;6.27;;
7573;SDS011;3828;48.922;9.116;2022-10-30T07:07:30;7.57;;;5.73;;
7573;SDS011;3828;48.922;9.116;2022-10-30T07:09:56;9.77;;;5.87;;
7573;SDS011;3828;48.922;9.116;2022-10-30T07:12:23;8.20;;;5.20;;
7573;SDS011;3828;48.922;9.116;2022-10-30T07:14:51;8.10;;;4.80;;
7573;SDS011;3828;48.922;9.116;2022-10-30T07:17:18;13.97;;;5.40;;
7573;SDS011;3828;48.922;9.116;2022-10-30T07:19:45;8.97;;;4.80;;
7573;SDS011;3828;48.922;9.116;2022-10-30T07:22:13;8.10;;;4.37;;
7573;SDS011;3828;48.922;9.116;2022-10-30T07:24:40;8.53;;;4.80;;
7573;SDS011;3828;48.922;9.116;2022-10-30T07:27:07;9.03;;;4.73;;
7573;SDS011;3828;48.922;9.116;2022-10-30T07:29:34;6.77;;;5.10;;
7573;SDS011;3828;48.922;9.116;2022-10-30T07:32:02;5.90;;;4.40;;
7573;SDS011;3828;48.922;9.116;2022-10-30T07:34:30;8.50;;;4.57;;
7573;SDS011;3828;48.922;9.116;2022-10-30T07:36:57;8.27;;;5.13;;
7573;SDS011;3828;48.922;9.116;2022-10-30T07:39:23;10.10;;;5.23;;
7573;SDS011;3828;48.922;9.116;2022-10-30T07:41:50;8.97;;;5.07;;
7573;SDS011;3828;48.922;9.116;2022-10-30T07:44:17;7.47;;;4.50;;
7573;SDS011;3828;48.922;9.116;2022-10-30T07:46:44;9.43;;;4.83;;
7573;SDS011;3828;48.922;9.116;2022-10-30T07:49:12;8.77;;;4.57;;
7573;SDS011;3828;48.922;9.116;2022-10-30T07:51:38;9.73;;;5.00;;
7573;SDS011;3828;48.922;9.116;2022-10-30T07:54:05;6.13;;;3.83;;
7573;SDS011;3828;48.922;9.116;2022-10-30T07:56:32;7.13;;;4.20;;
7573;SDS011;3828;48.922;9.116;2022-10-30T07:58:59;7.87;;;3.93;;
7573;SDS011;3828;48.922;9.116;2022-10-30T08:01:25;8.03;;;4.00;;
7573;SDS011;3828;48.922;9.116;2022-10-30T08:03:52;9.27;;;5.07;;
7573;SDS011;3828;48.922;9.116;2022-10-30T08:06:20;7.63;;;4.40;;
7573;SDS011;3828;48.922;9.116;2022-10-30T08:08:47;7.93;;;4.13;;
7573;SDS011;3828;48.922;9.116;2022-10-30T08:11:14;6.57;;;4.60;;
7573;SDS011;3828;48.922;9.116;2022-10-30T08:13:40;5.27;;;4.33;;
7573;SDS011;3828;48.922;9.116;2022-10-30T08:16:07;9.47;;;4.47;;
7573;SDS011;3828;48.922;9.116;2022-10-30T08:18:34;9.23;;;4.80;;
7573;SDS011;3828;48.922;9.116;2022-10-30T08:21:04;7.20;;;4.17;;
7573;SDS011;3828;48.922;9.116;2022-10-30T08:23:33;8.27;;;4.10;;
7573;SDS011;3828;48.922;9.116;2022-10-30T08:25:59;9.33;;;4.50;;
7573;SDS011;3828;48.922;9.116;2022-10-30T08:28:26;5.90;;;3.90;;
7573;SDS011;3828;48.922;9.116;2022-10-30T08:30:53;9.07;;;4.77;;
7573;SDS011;3828;48.922;9.116;2022-10-30T08:33:20;6.03;;;4.20;;
7573;SDS011;3828;48.922;9.116;2022-10-30T08:35:47;5.83;;;3.70;;
7573;SDS011;3828;48.922;9.116;2022-10-30T08:38:14;7.37;;;3.97;;
7573;SDS011;3828;48.922;9.116;2022-10-30T08:40:43;6.63;;;3.93;;
7573;SDS011;3828;48.922;9.116;2022-10-30T08:43:10;7.37;;;4.83;;
7573;SDS011;3828;48.922;9.116;2022-10-30T08:45:37;9.60;;;4.87;;
7573;SDS011;3828;48.922;9.116;2022-10-30T08:48:04;7.60;;;4.00;;
7573;SDS011;3828;48.922;9.116;2022-10-30T08:50:32;6.67;;;4.90;;
7573;SDS011;3828;48.922;9.116;2022-10-30T08:52:59;8.87;;;4.23;;
7573;SDS011;3828;48.922;9.116;2022-10-30T08:55:27;6.97;;;3.80;;
7573;SDS011;3828;48.922;9.116;2022-10-30T08:57:55;9.03;;;4.30;;
7573;SDS011;3828;48.922;9.116;2022-10-30T09:00:22;6.13;;;4.00;;
7573;SDS011;3828;48.922;9.116;2022-10-30T09:02:49;5.60;;;3.60;;
7573;SDS011;3828;48.922;9.116;2022-10-30T09:05:16;7.67;;;4.03;;
7573;SDS011;3828;48.922;9.116;2022-10-30T09:07:43;6.93;;;3.70;;
7573;SDS011;3828;48.922;9.116;2022-10-30T09:10:10;6.67;;;3.87;;
7573;SDS011;3828;48.922;9.116;2022-10-30T09:12:37;12.43;;;4.00;;
7573;SDS011;3828;48.922;9.116;2022-10-30T09:15:06;5.53;;;3.30;;
7573;SDS011;3828;48.922;9.116;2022-10-30T09:17:33;7.27;;;3.47;;
7573;SDS011;3828;48.922;9.116;2022-10-30T09:20:00;7.30;;;3.20;;
7573;SDS011;3828;48.922;9.116;2022-10-30T09:22:27;6.60;;;4.33;;
7573;SDS011;3828;48.922;9.116;2022-10-30T09:24:53;8.77;;;4.10;;
7573;SDS011;3828;48.922;9.116;2022-10-30T09:27:20;5.23;;;4.37;;
7573;SDS011;3828;48.922;9.116;2022-10-30T09:29:47;7.87;;;4.50;;
7573;SDS011;3828;48.922;9.116;2022-10-30T09:32:15;7.23;;;3.97;;
7573;SDS011;3828;48.922;9.116;2022-10-30T09:34:42;6.60;;;3.63;;
7573;SDS011;3828;48.922;9.116;2022-10-30T09:37:08;8.10;;;3.97;;
7573;SDS011;3828;48.922;9.116;2022-10-30T09:39:35;5.37;;;3.67;;
7573;SDS011;3828;48.922;9.116;2022-10-30T09:42:09;7.87;;;3.87;;
7573;SDS011;3828;48.922;9.116;2022-10-30T09:44:54;5.63;;;3.10;;
7573;SDS011;3828;48.922;9.116;2022-10-30T09:47:33;6.47;;;3.53;;
7573;SDS011;3828;48.922;9.116;2022-10-30T09:50:15;8.37;;;3.00;;
7573;SDS011;3828;48.922;9.116;2022-10-30T09:52:51;6.50;;;3.30;;
7573;SDS011;3828;48.922;9.116;2022-10-30T09:55:28;6.40;;;3.47;;
7573;SDS011;3828;48.922;9.116;2022-10-30T09:58:04;9.37;;;3.83;;
7573;SDS011;3828;48.922;9.116;2022-10-30T10:00:42;6.10;;;3.00;;
7573;SDS011;3828;48.922;9.116;2022-10-30T10:03:19;6.07;;;3.40;;
7573;SDS011;3828;48.922;9.116;2022-10-30T10:06:03;5.20;;;3.00;;
7573;SDS011;3828;48.922;9.116;2022-10-30T10:08:36;5.87;;;3.30;;
7573;SDS011;3828;48.922;9.116;2022-10-30T10:11:07;11.33;;;3.60;;
7573;SDS011;3828;48.922;9.116;2022-10-30T10:13:40;5.40;;;3.43;;
7573;SDS011;3828;48.922;9.116;2022-10-30T10:16:12;9.48;;;3.80;;
7573;SDS011;3828;48.922;9.116;2022-10-30T10:18:46;10.27;;;3.22;;
7573;SDS011;3828;48.922;9.116;2022-10-30T10:21:16;8.25;;;3.45;;
7573;SDS011;3828;48.922;9.116;2022-10-30T10:23:47;6.82;;;3.47;;
7573;SDS011;3828;48.922;9.116;2022-10-30T10:26:20;5.93;;;3.45;;
7573;SDS011;3828;48.922;9.116;2022-10-30T10:28:57;6.28;;;3.22;;
7573;SDS011;3828;48.922;9.116;2022-10-30T10:31:45;6.90;;;3.10;;
7573;SDS011;3828;48.922;9.116;2022-10-30T10:34:32;7.72;;;3.30;;
7573;SDS011;3828;48.922;9.116;2022-10-30T10:37:10;5.20;;;3.25;;
7573;SDS011;3828;48.922;9.116;2022-10-30T10:39:51;8.57;;;3.58;;
7573;SDS011;3828;48.922;9.116;2022-10-30T10:42:30;10.25;;;3.22;;
7573;SDS011;3828;48.922;9.116;2022-10-30T10:45:19;7.10;;;3.60;;
7573;SDS011;3828;48.922;9.116;2022-10-30T10:47:58;8.05;;;3.60;;
7573;SDS011;3828;48.922;9.116;2022-10-30T10:50:47;5.93;;;3.23;;
7573;SDS011;3828;48.922;9.116;2022-10-30T10:53:17;6.10;;;3.13;;
7573;SDS011;3828;48.922;9.116;2022-10-30T10:55:48;9.23;;;3.13;;
7573;SDS011;3828;48.922;9.116;2022-10-30T10:58:20;4.85;;;2.85;;
7573;SDS011;3828;48.922;9.116;2022-10-30T11:00:52;8.68;;;3.58;;
7573;SDS011;3828;48.922;9.116;2022-10-30T11:03:24;7.68;;;3.45;;
7573;SDS011;3828;48.922;9.116;2022-10-30T11:05:59;7.60;;;3.25;;
7573;SDS011;3828;48.922;9.116;2022-10-30T11:08:33;6.30;;;3.40;;
7573;SDS011;3828;48.922;9.116;2022-10-30T11:11:00;5.70;;;3.00;;
7573;SDS011;3828;48.922;9.116;2022-10-30T11:13:33;5.57;;;3.35;;
7573;SDS011;3828;48.922;9.116;2022-10-30T11:16:03;7.95;;;3.60;;
7573;SDS011;3828;48.922;9.116;2022-10-30T11:18:38;5.32;;;3.58;;
7573;SDS011;3828;48.922;9.116;2022-10-30T11:21:09;4.97;;;2.70;;
7573;SDS011;3828;48.922;9.116;2022-10-30T11:23:41;7.63;;;4.00;;
7573;SDS011;3828;48.922;9.116;2022-10-30T11:26:24;10.57;;;3.45;;
7573;SDS011;3828;48.922;9.116;2022-10-30T11:28:54;5.13;;;3.50;;
7573;SDS011;3828;48.922;9.116;2022-10-30T11:31:24;5.35;;;3.20;;
7573;SDS011;3828;48.922;9.116;2022-10-30T11:33:58;6.47;;;3.13;;
7573;SDS011;3828;48.922;9.116;2022-10-30T11:36:39;5.93;;;3.35;;
7573;SDS011;3828;48.922;9.116;2022-10-30T11:39:08;5.73;;;3.37;;
7573;SDS011;3828;48.922;9.116;2022-10-30T11:41:35;7.60;;;3.43;;
7573;SDS011;3828;48.922;9.116;2022-10-30T11:44:04;7.30;;;3.63;;
7573;SDS011;3828;48.922;9.116;2022-10-30T11:46:31;7.57;;;3.20;;
7573;SDS011;3828;48.922;9.116;2022-10-30T11:48:59;5.47;;;3.30;;
7573;SDS011;3828;48.922;9.116;2022-10-30T11:51:31;8.10;;;3.23;;
7573;SDS011;3828;48.922;9.116;2022-10-30T11:54:02;7.80;;;4.00;;
7573;SDS011;3828;48.922;9.116;2022-10-30T11:56:30;5.43;;;3.00;;
7573;SDS011;3828;48.922;9.116;2022-10-30T11:59:00;7.60;;;3.23;;
7573;SDS011;3828;48.922;9.116;2022-10-30T12:01:29;8.00;;;3.70;;
7573;SDS011;3828;48.922;9.116;2022-10-30T12:03:58;5.13;;;3.63;;
7573;SDS011;3828;48.922;9.116;2022-10-30T12:06:39;6.17;;;3.70;;
7573;SDS011;3828;48.922;9.116;2022-10-30T12:09:10;7.97;;;3.30;;
7573;SDS011;3828;48.922;9.116;2022-10-30T12:11:40;4.80;;;2.63;;
7573;SDS011;3828;48.922;9.116;2022-10-30T12:14:12;7.33;;;3.60;;
7573;SDS011;3828;48.922;9.116;2022-10-30T12:16:43;6.63;;;3.60;;
7573;SDS011;3828;48.922;9.116;2022-10-30T12:19:12;5.20;;;3.20;;
7573;SDS011;3828;48.922;9.116;2022-10-30T12:21:42;12.13;;;3.83;;
7573;SDS011;3828;48.922;9.116;2022-10-30T12:24:15;6.70;;;3.50;;
7573;SDS011;3828;48.922;9.116;2022-10-30T12:26:45;9.43;;;3.90;;
7573;SDS011;3828;48.922;9.116;2022-10-30T12:29:14;8.43;;;3.77;;
7573;SDS011;3828;48.922;9.116;2022-10-30T12:31:45;6.90;;;3.50;;
7573;SDS011;3828;48.922;9.116;2022-10-30T12:34:20;4.67;;;2.93;;
7573;SDS011;3828;48.922;9.116;2022-10-30T12:36:59;7.93;;;3.47;;
7573;SDS011;3828;48.922;9.116;2022-10-30T12:39:35;5.87;;;3.50;;
7573;SDS011;3828;48.922;9.116;2022-10-30T12:42:13;7.53;;;3.53;;
7573;SDS011;3828;48.922;9.116;2022-10-30T12:44:42;9.57;;;3.90;;
7573;SDS011;3828;48.922;9.116;2022-10-30T12:47:12;9.47;;;3.60;;
7573;SDS011;3828;48.922;9.116;2022-10-30T12:49:46;6.83;;;4.50;;
7573;SDS011;3828;48.922;9.116;2022-10-30T12:52:17;6.50;;;3.40;;
7573;SDS011;3828;48.922;9.116;2022-10-30T12:54:48;5.00;;;3.43;;
7573;SDS011;3828;48.922;9.116;2022-10-30T12:57:22;9.37;;;3.43;;
7573;SDS011;3828;48.922;9.116;2022-10-30T12:59:55;8.00;;;3.20;;
7573;SDS011;3828;48.922;9.116;2022-10-30T13:02:30;6.80;;;3.10;;
7573;SDS011;3828;48.922;9.116;2022-10-30T13:05:06;4.80;;;2.93;;
7573;SDS011;3828;48.922;9.116;2022-10-30T13:07:43;9.83;;;3.50;;
7573;SDS011;3828;48.922;9.116;2022-10-30T13:10:24;9.17;;;3.40;;
7573;SDS011;3828;48.922;9.116;2022-10-30T13:12:57;6.53;;;2.80;;
7573;SDS011;3828;48.922;9.116;2022-10-30T13:15:29;5.43;;;3.17;;
7573;SDS011;3828;48.922;9.116;2022-10-30T13:18:08;5.33;;;3.43;;
7573;SDS011;3828;48.922;9.116;2022-10-30T13:20:39;13.13;;;3.83;;
7573;SDS011;3828;48.922;9.116;2022-10-30T13:23:09;4.77;;;3.00;;
7573;SDS011;3828;48.922;9.116;2022-10-30T13:25:41;7.83;;;3.03;;
7573;SDS011;3828;48.922;9.116;2022-10-30T13:28:21;4.43;;;2.90;;
7573;SDS011;3828;48.922;9.116;2022-10-30T13:30:55;3.73;;;2.80;;
7573;SDS011;3828;48.922;9.116;2022-10-30T13:33:27;10.93;;;3.07;;
7573;SDS011;3828;48.922;9.116;2022-10-30T13:36:02;5.70;;;3.00;;
7573;SDS011;3828;48.922;9.116;2022-10-30T13:38:39;8.60;;;3.17;;
7573;SDS011;3828;48.922;9.116;2022-10-30T13:41:15;8.27;;;2.90;;
7573;SDS011;3828;48.922;9.116;2022-10-30T13:43:50;6.37;;;3.47;;
7573;SDS011;3828;48.922;9.116;2022-10-30T13:46:30;4.80;;;2.90;;
7573;SDS011;3828;48.922;9.116;2022-10-30T13:49:17;10.40;;;4.00;;
7573;SDS011;3828;48.922;9.116;2022-10-30T13:51:54;7.37;;;3.40;;
7573;SDS011;3828;48.922;9.116;2022-10-30T13:54:27;7.07;;;3.37;;
7573;SDS011;3828;48.922;9.116;2022-10-30T13:57:01;4.67;;;3.03;;
7573;SDS011;3828;48.922;9.116;2022-10-30T13:59:46;7.40;;;3.90;;
7573;SDS011;3828;48.922;9.116;2022-10-30T14:02:26;10.97;;;3.87;;
7573;SDS011;3828;48.922;9.116;2022-10-30T14:05:03;17.03;;;4.33;;
7573;SDS011;3828;48.922;9.116;2022-10-30T14:07:44;7.73;;;3.90;;
7573;SDS011;3828;48.922;9.116;2022-10-30T14:10:15;6.47;;;3.67;;
7573;SDS011;3828;48.922;9.116;2022-10-30T14:12:50;5.57;;;3.93;;
7573;SDS011;3828;48.922;9.116;2022-10-30T14:15:31;6.10;;;3.60;;
7573;SDS011;3828;48.922;9.116;2022-10-30T14:20:49;4.33;;;2.97;;
7573;SDS011;3828;48.922;9.116;2022-10-30T14:23:19;3.10;;;2.40;;
7573;SDS011;3828;48.922;9.116;2022-10-30T14:28:41;4.73;;;2.60;;
7573;SDS011;3828;48.922;9.116;2022-10-30T14:31:10;7.13;;;3.27;;
7573;SDS011;3828;48.922;9.116;2022-10-30T14:33:41;5.17;;;3.30;;
7573;SDS011;3828;48.922;9.116;2022-10-30T14:36:14;8.53;;;3.00;;
7573;SDS011;3828;48.922;9.116;2022-10-30T14:38:50;7.57;;;3.23;;
7573;SDS011;3828;48.922;9.116;2022-10-30T14:44:20;6.17;;;3.63;;
7573;SDS011;3828;48.922;9.116;2022-10-30T14:47:04;5.33;;;3.27;;
7573;SDS011;3828;48.922;9.116;2022-10-30T14:49:46;4.83;;;3.20;;
7573;SDS011;3828;48.922;9.116;2022-10-30T14:52:26;5.13;;;3.30;;
7573;SDS011;3828;48.922;9.116;2022-10-30T14:55:07;6.07;;;2.83;;
7573;SDS011;3828;48.922;9.116;2022-10-30T14:57:50;3.83;;;2.83;;
7573;SDS011;3828;48.922;9.116;2022-10-30T15:00:36;6.93;;;3.70;;
7573;SDS011;3828;48.922;9.116;2022-10-30T15:03:04;5.37;;;3.47;;
7573;SDS011;3828;48.922;9.116;2022-10-30T15:05:38;5.33;;;3.53;;
7573;SDS011;3828;48.922;9.116;2022-10-30T15:08:13;4.87;;;3.20;;
7573;SDS011;3828;48.922;9.116;2022-10-30T15:11:29;4.13;;;2.97;;
7573;SDS011;3828;48.922;9.116;2022-10-30T15:14:04;6.03;;;3.47;;
7573;SDS011;3828;48.922;9.116;2022-10-30T15:16:38;4.70;;;3.33;;
7573;SDS011;3828;48.922;9.116;2022-10-30T15:19:06;4.00;;;2.90;;
7573;SDS011;3828;48.922;9.116;2022-10-30T15:21:40;3.30;;;3.00;;
7573;SDS011;3828;48.922;9.116;2022-10-30T15:24:10;3.93;;;3.47;;
7573;SDS011;3828;48.922;9.116;2022-10-30T15:26:40;4.90;;;3.13;;
7573;SDS011;3828;48.922;9.116;2022-10-30T15:29:11;4.03;;;3.13;;
7573;SDS011;3828;48.922;9.116;2022-10-30T15:31:44;5.00;;;3.73;;
7573;SDS011;3828;48.922;9.116;2022-10-30T15:34:22;4.63;;;3.70;;
7573;SDS011;3828;48.922;9.116;2022-10-30T15:36:51;7.40;;;4.17;;
7573;SDS011;3828;48.922;9.116;2022-10-30T15:39:18;4.87;;;3.60;;
7573;SDS011;3828;48.922;9.116;2022-10-30T15:41:45;7.87;;;4.87;;
7573;SDS011;3828;48.922;9.116;2022-10-30T15:44:15;6.47;;;4.47;;